sensor_id;sensor_type;location;lat;lon;timestamp;P1;durP1;ratioP1;P2;durP2;ratioP2
49566;SDS011;35472;50.514;30.448;2022-09-01T00:00:23;2.60;;;1.10;;
49566;SDS011;35472;50.514;30.448;2022-09-01T00:02:59;2.33;;;1.30;;
49566;SDS011;35472;50.514;30.448;2022-09-01T00:05:24;1.63;;;1.10;;
49566;SDS011;35472;50.514;30.448;2022-09-01T00:07:50;1.48;;;0.75;;
49566;SDS011;35472;50.514;30.448;2022-09-01T00:10:15;1.95;;;1.25;;
49566;SDS011;35472;50.514;30.448;2022-09-01T00:12:40;1.80;;;1.00;;
49566;SDS011;35472;50.514;30.448;2022-09-01T00:15:08;1.75;;;1.08;;
49566;SDS011;35472;50.514;30.448;2022-09-01T00:17:36;1.67;;;1.05;;
49566;SDS011;35472;50.514;30.448;2022-09-01T00:20:02;2.65;;;0.88;;
49566;SDS011;35472;50.514;30.448;2022-09-01T00:22:28;1.00;;;0.65;;
49566;SDS011;35472;50.514;30.448;2022-09-01T00:24:53;2.97;;;0.85;;
49566;SDS011;35472;50.514;30.448;2022-09-01T00:27:19;3.00;;;1.17;;
49566;SDS011;35472;50.514;30.448;2022-09-01T00:29:44;5.70;;;1.42;;
49566;SDS011;35472;50.514;30.448;2022-09-01T00:32:10;1.40;;;0.90;;
49566;SDS011;35472;50.514;30.448;2022-09-01T00:34:36;5.63;;;1.27;;
49566;SDS011;35472;50.514;30.448;2022-09-01T00:37:01;2.33;;;0.90;;
49566;SDS011;35472;50.514;30.448;2022-09-01T00:39:27;5.07;;;1.40;;
49566;SDS011;35472;50.514;30.448;2022-09-01T00:41:52;3.58;;;1.15;;
49566;SDS011;35472;50.514;30.448;2022-09-01T00:44:19;2.55;;;1.10;;
49566;SDS011;35472;50.514;30.448;2022-09-01T00:46:51;5.13;;;1.15;;
49566;SDS011;35472;50.514;30.448;2022-09-01T00:49:35;2.00;;;1.23;;
49566;SDS011;35472;50.514;30.448;2022-09-01T00:54:50;4.33;;;1.90;;
49566;SDS011;35472;50.514;30.448;2022-09-01T00:57:19;2.45;;;2.15;;
49566;SDS011;35472;50.514;30.448;2022-09-01T00:59:46;4.75;;;2.80;;
49566;SDS011;35472;50.514;30.448;2022-09-01T01:02:16;10.23;;;4.32;;
49566;SDS011;35472;50.514;30.448;2022-09-01T01:04:41;8.40;;;4.93;;
49566;SDS011;35472;50.514;30.448;2022-09-01T01:07:08;7.00;;;4.30;;
49566;SDS011;35472;50.514;30.448;2022-09-01T01:09:37;11.40;;;6.05;;
49566;SDS011;35472;50.514;30.448;2022-09-01T01:12:06;17.55;;;6.95;;
49566;SDS011;35472;50.514;30.448;2022-09-01T01:14:36;12.63;;;7.00;;
49566;SDS011;35472;50.514;30.448;2022-09-01T01:17:03;11.98;;;7.47;;
49566;SDS011;35472;50.514;30.448;2022-09-01T01:25:37;8.75;;;5.97;;
49566;SDS011;35472;50.514;30.448;2022-09-01T01:28:04;13.18;;;6.38;;
49566;SDS011;35472;50.514;30.448;2022-09-01T01:30:50;9.40;;;6.25;;
49566;SDS011;35472;50.514;30.448;2022-09-01T01:33:19;7.82;;;5.50;;
49566;SDS011;35472;50.514;30.448;2022-09-01T01:35:47;11.30;;;6.60;;
49566;SDS011;35472;50.514;30.448;2022-09-01T01:38:15;11.77;;;6.68;;
49566;SDS011;35472;50.514;30.448;2022-09-01T01:40:41;14.57;;;7.82;;
49566;SDS011;35472;50.514;30.448;2022-09-01T01:43:07;11.65;;;6.55;;
49566;SDS011;35472;50.514;30.448;2022-09-01T01:45:33;17.65;;;8.52;;
49566;SDS011;35472;50.514;30.448;2022-09-01T01:47:59;14.00;;;7.22;;
49566;SDS011;35472;50.514;30.448;2022-09-01T01:50:26;18.08;;;6.15;;
49566;SDS011;35472;50.514;30.448;2022-09-01T01:52:57;16.15;;;7.38;;
49566;SDS011;35472;50.514;30.448;2022-09-01T01:55:26;10.77;;;6.55;;
49566;SDS011;35472;50.514;30.448;2022-09-01T01:57:57;11.38;;;5.57;;
49566;SDS011;35472;50.514;30.448;2022-09-01T02:00:26;7.60;;;4.65;;
49566;SDS011;35472;50.514;30.448;2022-09-01T02:02:56;9.73;;;6.38;;
49566;SDS011;35472;50.514;30.448;2022-09-01T02:05:24;9.85;;;6.63;;
49566;SDS011;35472;50.514;30.448;2022-09-01T02:07:55;10.73;;;5.05;;
49566;SDS011;35472;50.514;30.448;2022-09-01T02:10:26;9.25;;;5.85;;
49566;SDS011;35472;50.514;30.448;2022-09-01T02:12:55;12.50;;;5.05;;
49566;SDS011;35472;50.514;30.448;2022-09-01T02:15:33;9.55;;;5.22;;
49566;SDS011;35472;50.514;30.448;2022-09-01T02:18:02;6.32;;;3.67;;
49566;SDS011;35472;50.514;30.448;2022-09-01T02:20:28;12.45;;;5.07;;
49566;SDS011;35472;50.514;30.448;2022-09-01T02:22:54;6.35;;;3.90;;
49566;SDS011;35472;50.514;30.448;2022-09-01T02:25:20;6.70;;;3.97;;
49566;SDS011;35472;50.514;30.448;2022-09-01T02:27:48;8.98;;;4.50;;
49566;SDS011;35472;50.514;30.448;2022-09-01T02:30:17;8.38;;;4.65;;
49566;SDS011;35472;50.514;30.448;2022-09-01T02:32:43;4.70;;;3.85;;
49566;SDS011;35472;50.514;30.448;2022-09-01T02:35:09;7.38;;;4.88;;
49566;SDS011;35472;50.514;30.448;2022-09-01T02:37:36;9.18;;;4.32;;
49566;SDS011;35472;50.514;30.448;2022-09-01T02:40:04;9.20;;;4.63;;
49566;SDS011;35472;50.514;30.448;2022-09-01T02:42:31;9.07;;;5.50;;
49566;SDS011;35472;50.514;30.448;2022-09-01T02:44:56;8.65;;;4.25;;
49566;SDS011;35472;50.514;30.448;2022-09-01T02:47:23;9.35;;;4.80;;
49566;SDS011;35472;50.514;30.448;2022-09-01T02:49:52;6.65;;;3.60;;
49566;SDS011;35472;50.514;30.448;2022-09-01T02:52:18;7.53;;;4.88;;
49566;SDS011;35472;50.514;30.448;2022-09-01T02:54:47;7.07;;;4.50;;
49566;SDS011;35472;50.514;30.448;2022-09-01T02:57:14;8.02;;;4.50;;
49566;SDS011;35472;50.514;30.448;2022-09-01T02:59:40;9.32;;;4.40;;
49566;SDS011;35472;50.514;30.448;2022-09-01T03:02:07;8.95;;;4.40;;
49566;SDS011;35472;50.514;30.448;2022-09-01T03:04:34;4.68;;;3.92;;
49566;SDS011;35472;50.514;30.448;2022-09-01T03:07:04;7.88;;;4.10;;
49566;SDS011;35472;50.514;30.448;2022-09-01T03:09:31;7.28;;;3.35;;
49566;SDS011;35472;50.514;30.448;2022-09-01T03:11:57;7.43;;;5.18;;
49566;SDS011;35472;50.514;30.448;2022-09-01T03:14:23;9.10;;;4.63;;
49566;SDS011;35472;50.514;30.448;2022-09-01T03:16:50;9.23;;;4.22;;
49566;SDS011;35472;50.514;30.448;2022-09-01T03:19:16;6.43;;;4.63;;
49566;SDS011;35472;50.514;30.448;2022-09-01T03:21:43;9.63;;;6.40;;
49566;SDS011;35472;50.514;30.448;2022-09-01T03:24:15;11.68;;;5.72;;
49566;SDS011;35472;50.514;30.448;2022-09-01T03:26:43;14.27;;;6.70;;
49566;SDS011;35472;50.514;30.448;2022-09-01T03:29:10;9.32;;;6.25;;
49566;SDS011;35472;50.514;30.448;2022-09-01T03:31:36;12.88;;;6.75;;
49566;SDS011;35472;50.514;30.448;2022-09-01T03:34:03;7.85;;;5.72;;
49566;SDS011;35472;50.514;30.448;2022-09-01T03:36:33;8.73;;;6.25;;
49566;SDS011;35472;50.514;30.448;2022-09-01T03:38:59;9.88;;;5.78;;
49566;SDS011;35472;50.514;30.448;2022-09-01T03:41:28;8.00;;;5.00;;
49566;SDS011;35472;50.514;30.448;2022-09-01T03:43:55;6.43;;;4.95;;
49566;SDS011;35472;50.514;30.448;2022-09-01T03:46:24;9.60;;;5.15;;
49566;SDS011;35472;50.514;30.448;2022-09-01T03:48:54;6.82;;;6.03;;
49566;SDS011;35472;50.514;30.448;2022-09-01T03:51:23;5.20;;;4.68;;
49566;SDS011;35472;50.514;30.448;2022-09-01T03:53:50;10.48;;;5.05;;
49566;SDS011;35472;50.514;30.448;2022-09-01T03:56:22;7.45;;;4.90;;
49566;SDS011;35472;50.514;30.448;2022-09-01T03:58:49;9.07;;;5.72;;
49566;SDS011;35472;50.514;30.448;2022-09-01T04:01:16;12.30;;;6.82;;
49566;SDS011;35472;50.514;30.448;2022-09-01T04:03:43;13.80;;;6.18;;
49566;SDS011;35472;50.514;30.448;2022-09-01T04:06:13;10.15;;;5.00;;
49566;SDS011;35472;50.514;30.448;2022-09-01T04:08:42;9.00;;;5.25;;
49566;SDS011;35472;50.514;30.448;2022-09-01T04:11:10;9.18;;;4.95;;
49566;SDS011;35472;50.514;30.448;2022-09-01T04:13:39;10.48;;;6.40;;
49566;SDS011;35472;50.514;30.448;2022-09-01T04:16:14;9.93;;;6.57;;
49566;SDS011;35472;50.514;30.448;2022-09-01T04:19:10;14.13;;;6.03;;
49566;SDS011;35472;50.514;30.448;2022-09-01T04:21:50;15.20;;;6.47;;
49566;SDS011;35472;50.514;30.448;2022-09-01T04:24:18;12.90;;;6.60;;
49566;SDS011;35472;50.514;30.448;2022-09-01T04:26:46;9.38;;;6.53;;
49566;SDS011;35472;50.514;30.448;2022-09-01T04:29:14;10.30;;;6.55;;
49566;SDS011;35472;50.514;30.448;2022-09-01T04:31:44;8.23;;;5.68;;
49566;SDS011;35472;50.514;30.448;2022-09-01T04:34:13;9.98;;;6.88;;
49566;SDS011;35472;50.514;30.448;2022-09-01T04:36:41;9.65;;;6.10;;
49566;SDS011;35472;50.514;30.448;2022-09-01T04:39:09;9.57;;;6.18;;
49566;SDS011;35472;50.514;30.448;2022-09-01T04:41:37;11.73;;;6.47;;
49566;SDS011;35472;50.514;30.448;2022-09-01T04:44:10;8.07;;;6.10;;
49566;SDS011;35472;50.514;30.448;2022-09-01T04:46:39;9.82;;;6.05;;
49566;SDS011;35472;50.514;30.448;2022-09-01T04:49:09;10.40;;;7.05;;
49566;SDS011;35472;50.514;30.448;2022-09-01T04:51:42;12.20;;;7.68;;
49566;SDS011;35472;50.514;30.448;2022-09-01T04:54:09;10.45;;;6.57;;
49566;SDS011;35472;50.514;30.448;2022-09-01T04:56:41;9.30;;;6.18;;
49566;SDS011;35472;50.514;30.448;2022-09-01T04:59:11;8.32;;;6.75;;
49566;SDS011;35472;50.514;30.448;2022-09-01T05:01:38;11.07;;;6.25;;
49566;SDS011;35472;50.514;30.448;2022-09-01T05:04:09;13.02;;;7.57;;
49566;SDS011;35472;50.514;30.448;2022-09-01T05:06:39;11.43;;;5.80;;
49566;SDS011;35472;50.514;30.448;2022-09-01T05:09:06;10.82;;;7.47;;
49566;SDS011;35472;50.514;30.448;2022-09-01T05:11:51;10.20;;;7.07;;
49566;SDS011;35472;50.514;30.448;2022-09-01T05:14:29;11.25;;;7.07;;
49566;SDS011;35472;50.514;30.448;2022-09-01T05:16:57;12.90;;;6.90;;
49566;SDS011;35472;50.514;30.448;2022-09-01T05:19:24;12.90;;;8.88;;
49566;SDS011;35472;50.514;30.448;2022-09-01T05:21:57;9.73;;;6.68;;
49566;SDS011;35472;50.514;30.448;2022-09-01T05:24:24;8.43;;;6.18;;
49566;SDS011;35472;50.514;30.448;2022-09-01T05:26:55;16.73;;;8.65;;
49566;SDS011;35472;50.514;30.448;2022-09-01T05:29:43;20.73;;;9.93;;
49566;SDS011;35472;50.514;30.448;2022-09-01T05:32:11;13.95;;;7.80;;
49566;SDS011;35472;50.514;30.448;2022-09-01T05:34:37;11.07;;;6.45;;
49566;SDS011;35472;50.514;30.448;2022-09-01T05:37:05;10.73;;;7.25;;
49566;SDS011;35472;50.514;30.448;2022-09-01T05:39:33;14.95;;;7.95;;
49566;SDS011;35472;50.514;30.448;2022-09-01T05:42:00;11.45;;;8.35;;
49566;SDS011;35472;50.514;30.448;2022-09-01T05:44:28;11.10;;;7.35;;
49566;SDS011;35472;50.514;30.448;2022-09-01T05:46:57;10.45;;;7.68;;
49566;SDS011;35472;50.514;30.448;2022-09-01T05:49:25;9.48;;;6.88;;
49566;SDS011;35472;50.514;30.448;2022-09-01T05:51:51;10.80;;;6.35;;
49566;SDS011;35472;50.514;30.448;2022-09-01T05:54:23;9.02;;;5.55;;
49566;SDS011;35472;50.514;30.448;2022-09-01T05:56:53;9.77;;;5.47;;
49566;SDS011;35472;50.514;30.448;2022-09-01T05:59:24;8.20;;;5.32;;
49566;SDS011;35472;50.514;30.448;2022-09-01T06:01:52;7.40;;;5.05;;
49566;SDS011;35472;50.514;30.448;2022-09-01T06:04:19;7.78;;;4.30;;
49566;SDS011;35472;50.514;30.448;2022-09-01T06:06:47;10.50;;;5.90;;
49566;SDS011;35472;50.514;30.448;2022-09-01T06:09:15;7.45;;;4.93;;
49566;SDS011;35472;50.514;30.448;2022-09-01T06:11:46;9.27;;;5.28;;
49566;SDS011;35472;50.514;30.448;2022-09-01T06:14:13;7.45;;;4.53;;
49566;SDS011;35472;50.514;30.448;2022-09-01T06:16:41;9.27;;;5.43;;
49566;SDS011;35472;50.514;30.448;2022-09-01T06:19:08;7.60;;;5.07;;
49566;SDS011;35472;50.514;30.448;2022-09-01T06:21:39;9.65;;;3.85;;
49566;SDS011;35472;50.514;30.448;2022-09-01T06:24:05;6.18;;;4.40;;
49566;SDS011;35472;50.514;30.448;2022-09-01T06:26:32;8.40;;;4.53;;
49566;SDS011;35472;50.514;30.448;2022-09-01T06:29:00;10.05;;;3.90;;
49566;SDS011;35472;50.514;30.448;2022-09-01T06:31:30;5.13;;;3.72;;
49566;SDS011;35472;50.514;30.448;2022-09-01T06:34:08;7.53;;;4.70;;
49566;SDS011;35472;50.514;30.448;2022-09-01T06:36:38;8.18;;;4.80;;
49566;SDS011;35472;50.514;30.448;2022-09-01T06:39:08;7.53;;;5.25;;
49566;SDS011;35472;50.514;30.448;2022-09-01T06:41:38;8.02;;;5.65;;
49566;SDS011;35472;50.514;30.448;2022-09-01T06:44:08;9.45;;;6.50;;
49566;SDS011;35472;50.514;30.448;2022-09-01T06:46:36;4.43;;;3.78;;
49566;SDS011;35472;50.514;30.448;2022-09-01T06:49:02;6.65;;;3.83;;
49566;SDS011;35472;50.514;30.448;2022-09-01T06:51:28;6.45;;;4.70;;
49566;SDS011;35472;50.514;30.448;2022-09-01T06:53:54;6.90;;;4.05;;
49566;SDS011;35472;50.514;30.448;2022-09-01T06:56:22;8.93;;;5.32;;
49566;SDS011;35472;50.514;30.448;2022-09-01T06:58:51;6.70;;;4.68;;
49566;SDS011;35472;50.514;30.448;2022-09-01T07:01:18;7.00;;;5.07;;
49566;SDS011;35472;50.514;30.448;2022-09-01T07:03:48;7.63;;;4.47;;
49566;SDS011;35472;50.514;30.448;2022-09-01T07:06:25;8.18;;;4.63;;
49566;SDS011;35472;50.514;30.448;2022-09-01T07:09:12;10.43;;;4.03;;
49566;SDS011;35472;50.514;30.448;2022-09-01T07:11:39;6.03;;;4.15;;
49566;SDS011;35472;50.514;30.448;2022-09-01T07:14:05;5.22;;;3.88;;
49566;SDS011;35472;50.514;30.448;2022-09-01T07:16:33;10.35;;;6.65;;
49566;SDS011;35472;50.514;30.448;2022-09-01T07:19:04;10.03;;;6.50;;
49566;SDS011;35472;50.514;30.448;2022-09-01T07:21:36;11.55;;;7.57;;
49566;SDS011;35472;50.514;30.448;2022-09-01T07:24:02;11.65;;;7.57;;
49566;SDS011;35472;50.514;30.448;2022-09-01T07:26:30;15.48;;;10.27;;
49566;SDS011;35472;50.514;30.448;2022-09-01T07:28:59;20.38;;;10.80;;
49566;SDS011;35472;50.514;30.448;2022-09-01T07:31:29;20.63;;;12.13;;
49566;SDS011;35472;50.514;30.448;2022-09-01T07:33:58;24.85;;;12.85;;
49566;SDS011;35472;50.514;30.448;2022-09-01T07:36:29;24.10;;;14.00;;
49566;SDS011;35472;50.514;30.448;2022-09-01T07:38:55;28.35;;;16.33;;
49566;SDS011;35472;50.514;30.448;2022-09-01T07:41:21;34.67;;;21.27;;
49566;SDS011;35472;50.514;30.448;2022-09-01T07:44:08;43.70;;;24.13;;
49566;SDS011;35472;50.514;30.448;2022-09-01T07:46:57;38.40;;;24.70;;
49566;SDS011;35472;50.514;30.448;2022-09-01T07:49:23;37.35;;;23.75;;
49566;SDS011;35472;50.514;30.448;2022-09-01T07:51:49;49.15;;;27.33;;
49566;SDS011;35472;50.514;30.448;2022-09-01T07:54:17;43.10;;;28.70;;
49566;SDS011;35472;50.514;30.448;2022-09-01T07:56:43;52.45;;;31.95;;
49566;SDS011;35472;50.514;30.448;2022-09-01T07:59:09;57.85;;;32.28;;
49566;SDS011;35472;50.514;30.448;2022-09-01T08:01:44;51.30;;;32.72;;
49566;SDS011;35472;50.514;30.448;2022-09-01T08:04:11;52.63;;;33.47;;
49566;SDS011;35472;50.514;30.448;2022-09-01T08:06:38;52.63;;;33.60;;
49566;SDS011;35472;50.514;30.448;2022-09-01T08:09:05;49.45;;;32.72;;
49566;SDS011;35472;50.514;30.448;2022-09-01T08:11:32;53.40;;;33.00;;
49566;SDS011;35472;50.514;30.448;2022-09-01T08:13:58;57.92;;;36.33;;
49566;SDS011;35472;50.514;30.448;2022-09-01T08:16:27;61.17;;;37.80;;
49566;SDS011;35472;50.514;30.448;2022-09-01T08:18:56;64.43;;;41.95;;
49566;SDS011;35472;50.514;30.448;2022-09-01T08:21:26;60.38;;;38.35;;
49566;SDS011;35472;50.514;30.448;2022-09-01T08:24:00;61.95;;;40.90;;
49566;SDS011;35472;50.514;30.448;2022-09-01T08:26:26;73.60;;;42.10;;
49566;SDS011;35472;50.514;30.448;2022-09-01T08:28:52;72.35;;;43.63;;
49566;SDS011;35472;50.514;30.448;2022-09-01T08:31:24;63.22;;;39.80;;
49566;SDS011;35472;50.514;30.448;2022-09-01T08:33:51;58.25;;;37.80;;
49566;SDS011;35472;50.514;30.448;2022-09-01T08:36:18;64.30;;;40.72;;
49566;SDS011;35472;50.514;30.448;2022-09-01T08:38:44;55.85;;;37.13;;
49566;SDS011;35472;50.514;30.448;2022-09-01T08:41:17;70.65;;;46.25;;
49566;SDS011;35472;50.514;30.448;2022-09-01T08:44:02;72.30;;;45.58;;
49566;SDS011;35472;50.514;30.448;2022-09-01T08:46:52;70.50;;;44.90;;
49566;SDS011;35472;50.514;30.448;2022-09-01T08:49:22;99.88;;;65.13;;
49566;SDS011;35472;50.514;30.448;2022-09-01T08:57:45;85.28;;;52.28;;
49566;SDS011;35472;50.514;30.448;2022-09-01T09:00:19;84.70;;;50.30;;
49566;SDS011;35472;50.514;30.448;2022-09-01T09:02:56;77.00;;;44.42;;
49566;SDS011;35472;50.514;30.448;2022-09-01T09:05:41;74.57;;;44.05;;
49566;SDS011;35472;50.514;30.448;2022-09-01T09:16:54;53.17;;;32.25;;
49566;SDS011;35472;50.514;30.448;2022-09-01T09:19:25;41.95;;;28.02;;
49566;SDS011;35472;50.514;30.448;2022-09-01T09:21:56;37.60;;;22.40;;
49566;SDS011;35472;50.514;30.448;2022-09-01T09:24:25;33.67;;;22.77;;
49566;SDS011;35472;50.514;30.448;2022-09-01T09:29:47;39.13;;;23.90;;
49566;SDS011;35472;50.514;30.448;2022-09-01T09:32:22;40.88;;;24.77;;
49566;SDS011;35472;50.514;30.448;2022-09-01T09:34:49;27.50;;;14.85;;
49566;SDS011;35472;50.514;30.448;2022-09-01T09:37:26;23.85;;;15.05;;
49566;SDS011;35472;50.514;30.448;2022-09-01T09:42:27;9.85;;;6.70;;
49566;SDS011;35472;50.514;30.448;2022-09-01T09:44:52;9.65;;;6.47;;
49566;SDS011;35472;50.514;30.448;2022-09-01T09:47:33;9.75;;;6.97;;
49566;SDS011;35472;50.514;30.448;2022-09-01T09:50:14;10.63;;;5.83;;
49566;SDS011;35472;50.514;30.448;2022-09-01T09:53:11;6.70;;;4.93;;
49566;SDS011;35472;50.514;30.448;2022-09-01T09:55:36;7.25;;;4.68;;
49566;SDS011;35472;50.514;30.448;2022-09-01T09:58:18;6.18;;;3.28;;
49566;SDS011;35472;50.514;30.448;2022-09-01T10:01:00;4.40;;;3.03;;
49566;SDS011;35472;50.514;30.448;2022-09-01T10:03:35;3.17;;;2.08;;
49566;SDS011;35472;50.514;30.448;2022-09-01T10:06:03;5.70;;;3.67;;
49566;SDS011;35472;50.514;30.448;2022-09-01T10:08:38;6.85;;;5.28;;
49566;SDS011;35472;50.514;30.448;2022-09-01T10:11:09;6.18;;;4.35;;
49566;SDS011;35472;50.514;30.448;2022-09-01T10:13:58;4.78;;;2.30;;
49566;SDS011;35472;50.514;30.448;2022-09-01T10:16:27;2.17;;;1.40;;
49566;SDS011;35472;50.514;30.448;2022-09-01T10:18:56;1.55;;;1.20;;
49566;SDS011;35472;50.514;30.448;2022-09-01T10:21:34;4.75;;;1.30;;
49566;SDS011;35472;50.514;30.448;2022-09-01T10:24:06;2.13;;;1.38;;
49566;SDS011;35472;50.514;30.448;2022-09-01T10:26:55;2.42;;;1.08;;
49566;SDS011;35472;50.514;30.448;2022-09-01T10:29:34;3.17;;;1.30;;
49566;SDS011;35472;50.514;30.448;2022-09-01T10:32:09;1.73;;;1.17;;
49566;SDS011;35472;50.514;30.448;2022-09-01T10:34:40;5.95;;;5.25;;
49566;SDS011;35472;50.514;30.448;2022-09-01T10:37:06;9.77;;;5.63;;
49566;SDS011;35472;50.514;30.448;2022-09-01T10:39:32;10.70;;;7.20;;
49566;SDS011;35472;50.514;30.448;2022-09-01T10:41:59;9.75;;;7.28;;
49566;SDS011;35472;50.514;30.448;2022-09-01T10:44:33;18.00;;;8.32;;
49566;SDS011;35472;50.514;30.448;2022-09-01T10:47:26;11.95;;;7.53;;
49566;SDS011;35472;50.514;30.448;2022-09-01T10:50:42;10.93;;;7.22;;
49566;SDS011;35472;50.514;30.448;2022-09-01T10:53:25;12.10;;;8.88;;
49566;SDS011;35472;50.514;30.448;2022-09-01T11:04:15;20.33;;;10.02;;
49566;SDS011;35472;50.514;30.448;2022-09-01T11:09:16;18.58;;;11.68;;
49566;SDS011;35472;50.514;30.448;2022-09-01T11:11:48;20.23;;;12.65;;
49566;SDS011;35472;50.514;30.448;2022-09-01T11:14:25;25.25;;;13.38;;
49566;SDS011;35472;50.514;30.448;2022-09-01T11:19:45;27.42;;;14.02;;
49566;SDS011;35472;50.514;30.448;2022-09-01T11:28:05;20.45;;;11.73;;
49566;SDS011;35472;50.514;30.448;2022-09-01T11:30:37;18.73;;;12.43;;
49566;SDS011;35472;50.514;30.448;2022-09-01T11:35:39;23.83;;;12.88;;
49566;SDS011;35472;50.514;30.448;2022-09-01T11:38:07;19.98;;;11.27;;
49566;SDS011;35472;50.514;30.448;2022-09-01T11:40:35;23.00;;;12.02;;
49566;SDS011;35472;50.514;30.448;2022-09-01T11:43:03;13.05;;;8.85;;
49566;SDS011;35472;50.514;30.448;2022-09-01T11:45:37;15.98;;;9.65;;
49566;SDS011;35472;50.514;30.448;2022-09-01T11:48:14;15.65;;;9.60;;
49566;SDS011;35472;50.514;30.448;2022-09-01T11:50:41;17.35;;;8.18;;
49566;SDS011;35472;50.514;30.448;2022-09-01T11:53:14;10.23;;;6.55;;
49566;SDS011;35472;50.514;30.448;2022-09-01T11:55:48;6.32;;;5.03;;
49566;SDS011;35472;50.514;30.448;2022-09-01T12:00:52;10.70;;;5.53;;
49566;SDS011;35472;50.514;30.448;2022-09-01T12:03:21;6.60;;;3.78;;
49566;SDS011;35472;50.514;30.448;2022-09-01T12:05:53;5.10;;;2.97;;
49566;SDS011;35472;50.514;30.448;2022-09-01T12:08:27;10.27;;;3.75;;
49566;SDS011;35472;50.514;30.448;2022-09-01T12:11:04;5.68;;;4.35;;
49566;SDS011;35472;50.514;30.448;2022-09-01T12:13:31;6.70;;;4.22;;
49566;SDS011;35472;50.514;30.448;2022-09-01T12:15:59;5.63;;;3.90;;
49566;SDS011;35472;50.514;30.448;2022-09-01T12:18:28;8.05;;;4.93;;
49566;SDS011;35472;50.514;30.448;2022-09-01T12:21:00;8.13;;;4.50;;
49566;SDS011;35472;50.514;30.448;2022-09-01T12:23:29;6.63;;;3.90;;
49566;SDS011;35472;50.514;30.448;2022-09-01T12:25:58;6.28;;;3.33;;
49566;SDS011;35472;50.514;30.448;2022-09-01T12:28:26;5.22;;;3.65;;
49566;SDS011;35472;50.514;30.448;2022-09-01T12:30:58;6.80;;;3.55;;
49566;SDS011;35472;50.514;30.448;2022-09-01T12:33:25;6.03;;;3.28;;
49566;SDS011;35472;50.514;30.448;2022-09-01T12:36:38;4.70;;;2.67;;
49566;SDS011;35472;50.514;30.448;2022-09-01T12:38:38;2.03;;;1.45;;
49566;SDS011;35472;50.514;30.448;2022-09-01T12:41:20;10.85;;;3.92;;
49566;SDS011;35472;50.514;30.448;2022-09-01T12:47:03;6.25;;;2.60;;
49566;SDS011;35472;50.514;30.448;2022-09-01T12:49:35;4.40;;;2.25;;
49566;SDS011;35472;50.514;30.448;2022-09-01T12:54:36;1.10;;;0.88;;
49566;SDS011;35472;50.514;30.448;2022-09-01T12:57:02;2.28;;;0.85;;
49566;SDS011;35472;50.514;30.448;2022-09-01T12:59:28;1.63;;;0.80;;
49566;SDS011;35472;50.514;30.448;2022-09-01T13:01:53;6.47;;;1.00;;
49566;SDS011;35472;50.514;30.448;2022-09-01T13:06:49;2.35;;;1.15;;
49566;SDS011;35472;50.514;30.448;2022-09-01T13:09:15;1.90;;;0.77;;
49566;SDS011;35472;50.514;30.448;2022-09-01T13:11:42;2.45;;;0.60;;
49566;SDS011;35472;50.514;30.448;2022-09-01T13:14:07;1.98;;;1.00;;
49566;SDS011;35472;50.514;30.448;2022-09-01T13:16:34;3.03;;;1.52;;
49566;SDS011;35472;50.514;30.448;2022-09-01T13:19:01;3.78;;;1.63;;
49566;SDS011;35472;50.514;30.448;2022-09-01T13:21:28;2.10;;;1.75;;
49566;SDS011;35472;50.514;30.448;2022-09-01T13:23:56;1.40;;;1.10;;
49566;SDS011;35472;50.514;30.448;2022-09-01T13:26:21;4.40;;;1.20;;
49566;SDS011;35472;50.514;30.448;2022-09-01T13:28:48;1.83;;;1.15;;
49566;SDS011;35472;50.514;30.448;2022-09-01T13:31:14;1.33;;;1.00;;
49566;SDS011;35472;50.514;30.448;2022-09-01T13:33:40;0.60;;;0.40;;
49566;SDS011;35472;50.514;30.448;2022-09-01T13:36:05;1.33;;;0.70;;
49566;SDS011;35472;50.514;30.448;2022-09-01T13:38:31;0.75;;;0.50;;
49566;SDS011;35472;50.514;30.448;2022-09-01T13:40:57;7.28;;;0.88;;
49566;SDS011;35472;50.514;30.448;2022-09-01T13:43:24;0.25;;;0.25;;
49566;SDS011;35472;50.514;30.448;2022-09-01T13:45:53;1.63;;;0.60;;
49566;SDS011;35472;50.514;30.448;2022-09-01T13:48:19;0.57;;;0.40;;
49566;SDS011;35472;50.514;30.448;2022-09-01T13:50:46;0.63;;;0.45;;
49566;SDS011;35472;50.514;30.448;2022-09-01T13:53:14;1.05;;;0.70;;
49566;SDS011;35472;50.514;30.448;2022-09-01T13:55:40;2.47;;;1.20;;
49566;SDS011;35472;50.514;30.448;2022-09-01T13:58:06;1.02;;;0.60;;
49566;SDS011;35472;50.514;30.448;2022-09-01T14:00:36;0.80;;;0.80;;
49566;SDS011;35472;50.514;30.448;2022-09-01T14:03:05;0.30;;;0.30;;
49566;SDS011;35472;50.514;30.448;2022-09-01T14:05:33;1.05;;;0.55;;
49566;SDS011;35472;50.514;30.448;2022-09-01T14:08:01;0.55;;;0.40;;
49566;SDS011;35472;50.514;30.448;2022-09-01T14:10:28;2.42;;;0.50;;
49566;SDS011;35472;50.514;30.448;2022-09-01T14:12:56;0.30;;;0.30;;
49566;SDS011;35472;50.514;30.448;2022-09-01T14:15:23;1.58;;;0.47;;
49566;SDS011;35472;50.514;30.448;2022-09-01T14:17:49;1.17;;;0.40;;
49566;SDS011;35472;50.514;30.448;2022-09-01T14:20:20;0.75;;;0.40;;
49566;SDS011;35472;50.514;30.448;2022-09-01T14:22:49;7.07;;;3.58;;
49566;SDS011;35472;50.514;30.448;2022-09-01T14:25:15;5.93;;;5.32;;
49566;SDS011;35472;50.514;30.448;2022-09-01T14:27:42;15.38;;;6.93;;
49566;SDS011;35472;50.514;30.448;2022-09-01T14:30:09;9.40;;;6.75;;
49566;SDS011;35472;50.514;30.448;2022-09-01T14:32:37;6.30;;;4.95;;
49566;SDS011;35472;50.514;30.448;2022-09-01T14:35:03;10.30;;;6.35;;
49566;SDS011;35472;50.514;30.448;2022-09-01T14:37:32;11.40;;;5.85;;
49566;SDS011;35472;50.514;30.448;2022-09-01T14:39:58;9.13;;;5.63;;
49566;SDS011;35472;50.514;30.448;2022-09-01T14:42:23;10.18;;;6.40;;
49566;SDS011;35472;50.514;30.448;2022-09-01T14:44:49;9.15;;;6.30;;
49566;SDS011;35472;50.514;30.448;2022-09-01T14:47:15;8.57;;;6.63;;
49566;SDS011;35472;50.514;30.448;2022-09-01T14:49:41;10.80;;;6.03;;
49566;SDS011;35472;50.514;30.448;2022-09-01T14:52:07;9.27;;;6.82;;
49566;SDS011;35472;50.514;30.448;2022-09-01T14:54:39;9.88;;;6.30;;
49566;SDS011;35472;50.514;30.448;2022-09-01T14:57:08;8.55;;;5.97;;
49566;SDS011;35472;50.514;30.448;2022-09-01T14:59:34;9.27;;;5.95;;
49566;SDS011;35472;50.514;30.448;2022-09-01T15:02:01;10.95;;;7.25;;
49566;SDS011;35472;50.514;30.448;2022-09-01T15:04:27;13.75;;;8.65;;
49566;SDS011;35472;50.514;30.448;2022-09-01T15:06:53;16.25;;;10.50;;
49566;SDS011;35472;50.514;30.448;2022-09-01T15:09:19;17.63;;;8.82;;
49566;SDS011;35472;50.514;30.448;2022-09-01T15:11:44;15.35;;;10.38;;
49566;SDS011;35472;50.514;30.448;2022-09-01T15:14:10;15.77;;;9.00;;
49566;SDS011;35472;50.514;30.448;2022-09-01T15:16:36;12.20;;;8.60;;
49566;SDS011;35472;50.514;30.448;2022-09-01T15:19:06;14.73;;;8.57;;
49566;SDS011;35472;50.514;30.448;2022-09-01T15:21:34;11.32;;;7.55;;
49566;SDS011;35472;50.514;30.448;2022-09-01T15:24:00;14.60;;;10.25;;
49566;SDS011;35472;50.514;30.448;2022-09-01T15:26:26;11.52;;;8.60;;
49566;SDS011;35472;50.514;30.448;2022-09-01T15:28:51;13.30;;;9.82;;
49566;SDS011;35472;50.514;30.448;2022-09-01T15:31:18;13.77;;;9.52;;
49566;SDS011;35472;50.514;30.448;2022-09-01T15:33:45;12.40;;;9.57;;
49566;SDS011;35472;50.514;30.448;2022-09-01T15:36:15;13.93;;;9.93;;
49566;SDS011;35472;50.514;30.448;2022-09-01T15:38:41;14.68;;;9.10;;
49566;SDS011;35472;50.514;30.448;2022-09-01T15:41:07;19.92;;;13.40;;